Time;durP1;ratioP1;P1;durP2;ratioP2;P2;SDS_P1;SDS_P2;PMS_P1;PMS_P2;Temp;Humidity;BMP_temperature;BMP_pressure;BME280_temperature;BME280_humidity;BME280_pressure;Samples;Min_cycle;Max_cycle;Signal;HPM_P1;HPM_P2
2023/02/23 00:01:13;;;;;;;0.50;0.50;;;;;;;2.38;67.41;100393.09;5028817;28;20032;-66
2023/02/23 00:03:39;;;;;;;0.70;0.70;;;;;;;2.25;67.87;100376.59;5025486;28;20041;-65
2023/02/23 00:06:06;;;;;;;0.60;0.60;;;;;;;2.44;67.57;100388.16;5025052;28;20220;-67
2023/02/23 00:08:34;;;;;;;0.50;0.50;;;;;;;2.51;67.44;100378.91;5025139;28;20098;-66
2023/02/23 00:11:00;;;;;;;0.57;0.57;;;;;;;2.35;67.63;100387.91;5024854;28;20113;-66
2023/02/23 00:13:25;;;;;;;0.60;0.60;;;;;;;2.16;68.63;100386.56;5025029;28;20036;-64
2023/02/23 00:15:51;;;;;;;0.75;0.75;;;;;;;2.47;67.63;100375.41;5024958;28;20029;-65
2023/02/23 00:18:16;;;;;;;0.60;0.60;;;;;;;2.48;67.40;100382.28;5024989;28;20037;-65
2023/02/23 00:20:46;;;;;;;0.60;0.60;;;;;;;2.20;68.52;100381.59;5024792;28;20052;-65
2023/02/23 00:23:13;;;;;;;0.60;0.60;;;;;;;2.33;68.31;100377.63;5024759;28;20033;-66
2023/02/23 00:25:44;;;;;;;0.52;0.52;;;;;;;2.41;68.05;100372.69;5024920;28;20037;-65
2023/02/23 00:28:09;;;;;;;0.60;0.60;;;;;;;2.23;68.56;100376.53;5025151;28;20105;-65
2023/02/23 00:30:35;;;;;;;0.70;0.70;;;;;;;2.35;68.54;100372.53;5025490;28;20051;-67
2023/02/23 00:33:00;;;;;;;0.50;0.50;;;;;;;2.46;68.18;100368.53;5025088;28;20113;-66
2023/02/23 00:35:26;;;;;;;0.50;0.50;;;;;;;2.52;68.35;100382.34;5026830;28;20030;-69
2023/02/23 00:37:51;;;;;;;0.50;0.50;;;;;;;2.46;67.99;100370.25;5028892;28;20102;-66
2023/02/23 00:40:20;;;;;;;0.60;0.60;;;;;;;2.15;68.99;100362.66;5028338;28;20053;-65
2023/02/23 00:42:46;;;;;;;0.60;0.60;;;;;;;2.28;69.01;100357.84;5028540;28;20482;-66
2023/02/23 00:45:13;;;;;;;0.60;0.60;;;;;;;2.31;69.15;100357.94;5028391;28;20052;-66
2023/02/23 00:47:43;;;;;;;0.60;0.60;;;;;;;2.13;69.74;100348.94;5028297;28;20032;-66
2023/02/23 00:50:14;;;;;;;0.60;0.60;;;;;;;2.20;69.51;100352.53;5028289;28;20569;-66
2023/02/23 00:52:41;;;;;;;0.70;0.70;;;;;;;1.93;70.73;100341.59;5028234;28;20042;-67
2023/02/23 00:55:08;;;;;;;0.60;0.60;;;;;;;2.03;70.52;100335.03;5027960;28;20026;-66
2023/02/23 00:57:34;;;;;;;1.02;1.02;;;;;;;1.96;71.41;100339.16;5028219;28;20033;-67
2023/02/23 01:00:00;;;;;;;0.50;0.50;;;;;;;1.95;71.48;100327.16;5028192;28;20018;-67
2023/02/23 01:02:29;;;;;;;0.60;0.60;;;;;;;1.63;72.68;100328.88;5027973;28;20081;-66
2023/02/23 01:04:55;;;;;;;0.60;0.60;;;;;;;1.59;73.51;100317.69;5028118;28;20265;-68
2023/02/23 01:07:24;;;;;;;0.50;0.50;;;;;;;1.81;73.26;100321.69;5043285;28;20036;-65
2023/02/23 01:09:50;;;;;;;1.55;1.45;;;;;;;1.53;74.23;100314.97;5027872;28;20269;-66
2023/02/23 01:12:15;;;;;;;0.60;0.60;;;;;;;1.73;73.91;100320.63;5027675;28;20049;-66
2023/02/23 01:14:41;;;;;;;0.50;0.50;;;;;;;1.58;74.78;100300.63;5026539;28;20045;-67
2023/02/23 01:17:06;;;;;;;0.50;0.50;;;;;;;1.58;75.41;100303.19;5042961;28;20026;-67
2023/02/23 01:19:33;;;;;;;0.57;0.57;;;;;;;1.50;75.96;100308.09;5027718;28;20061;-67
2023/02/23 01:22:01;;;;;;;0.60;0.60;;;;;;;1.41;76.18;100303.56;5027686;28;20022;-67
2023/02/23 01:24:26;;;;;;;7.30;6.65;;;;;;;1.35;76.83;100308.53;5027671;28;20026;-68
2023/02/23 01:26:52;;;;;;;0.60;0.60;;;;;;;1.39;77.06;100309.47;5027483;28;20429;-68
2023/02/23 01:29:18;;;;;;;0.52;0.52;;;;;;;1.32;77.52;100306.75;5027505;28;20022;-67
2023/02/23 01:31:46;;;;;;;0.55;0.55;;;;;;;1.28;77.91;100306.63;5026258;28;20014;-69
2023/02/23 01:34:14;;;;;;;0.60;0.60;;;;;;;1.36;78.10;100294.91;5027510;28;20155;-67
2023/02/23 01:36:41;;;;;;;0.50;0.50;;;;;;;1.33;78.26;100299.94;5027427;28;20104;-68
2023/02/23 01:39:10;;;;;;;0.90;0.90;;;;;;;1.23;78.89;100281.78;5027335;28;20030;-66
2023/02/23 01:41:37;;;;;;;0.50;0.50;;;;;;;1.31;79.30;100286.25;5042089;28;20470;-67
2023/02/23 01:44:27;;;;;;;0.60;0.60;;;;;;;1.11;79.56;100281.44;5027519;28;20030;-67
2023/02/23 01:46:52;;;;;;;0.50;0.50;;;;;;;0.98;80.44;100278.53;5026821;28;20030;-65
2023/02/23 01:49:26;;;;;;;0.60;0.60;;;;;;;1.04;80.72;100282.09;5027236;28;20026;-66
2023/02/23 01:51:57;;;;;;;0.60;0.60;;;;;;;1.22;80.59;100268.94;5026980;28;20037;-66
2023/02/23 01:54:27;;;;;;;1.98;1.88;;;;;;;1.07;81.23;100266.84;5027436;28;20029;-67
2023/02/23 01:56:56;;;;;;;0.73;0.73;;;;;;;1.07;81.62;100271.97;5026797;28;20490;-66
2023/02/23 01:59:28;;;;;;;0.60;0.60;;;;;;;1.02;81.99;100263.28;5027010;28;20048;-66
2023/02/23 02:01:55;;;;;;;0.63;0.63;;;;;;;1.10;82.11;100278.00;5027057;28;20029;-65
2023/02/23 02:04:21;;;;;;;0.60;0.60;;;;;;;1.09;82.25;100247.28;5027079;28;20042;-67
2023/02/23 02:06:52;;;;;;;0.50;0.50;;;;;;;1.22;81.96;100257.03;5026880;28;20028;-66
2023/02/23 02:09:24;;;;;;;0.60;0.60;;;;;;;1.23;82.37;100253.63;5027081;28;20030;-66
2023/02/23 02:11:52;;;;;;;0.60;0.60;;;;;;;0.99;83.31;100247.03;5026693;28;20026;-67
2023/02/23 02:14:25;;;;;;;0.57;0.57;;;;;;;1.07;83.53;100251.50;5027010;28;20025;-66
2023/02/23 02:17:24;;;;;;;0.52;0.52;;;;;;;1.07;83.82;100241.28;5026640;28;20050;-69
2023/02/23 02:20:04;;;;;;;0.60;0.60;;;;;;;1.08;83.83;100235.31;5027176;28;20057;-68
2023/02/23 02:23:00;;;;;;;0.50;0.50;;;;;;;0.97;84.48;100235.91;5026618;28;20026;-67
2023/02/23 02:25:35;;;;;;;0.50;0.50;;;;;;;1.16;84.31;100221.06;5026301;28;20484;-69
2023/02/23 02:28:46;;;;;;;0.60;0.60;;;;;;;1.12;84.40;100221.78;5026451;28;20029;-66
2023/02/23 02:31:49;;;;;;;1.42;1.40;;;;;;;1.11;84.62;100227.72;5024285;28;20065;-67
2023/02/23 02:34:31;;;;;;;0.60;0.60;;;;;;;1.04;85.14;100211.34;5026422;28;20049;-67
2023/02/23 02:36:56;;;;;;;0.60;0.60;;;;;;;1.05;85.24;100207.13;5041666;28;20030;-67
2023/02/23 02:39:45;;;;;;;0.55;0.55;;;;;;;1.15;84.97;100206.53;5026196;28;20032;-67
2023/02/23 02:42:23;;;;;;;0.50;0.50;;;;;;;1.09;85.24;100199.56;5041401;28;20104;-69
2023/02/23 02:45:10;;;;;;;0.60;0.60;;;;;;;1.05;85.67;100202.00;5026362;28;20049;-68
2023/02/23 02:47:45;;;;;;;0.50;0.50;;;;;;;1.13;85.59;100202.22;5041340;28;20041;-68
2023/02/23 02:50:19;;;;;;;0.50;0.50;;;;;;;1.34;84.64;100195.09;5026006;28;20433;-68
2023/02/23 02:52:56;;;;;;;0.50;0.50;;;;;;;1.45;84.90;100187.69;5041177;28;20125;-68
2023/02/23 02:55:28;;;;;;;0.50;0.50;;;;;;;1.15;85.41;100183.50;5025878;28;20112;-68
2023/02/23 02:57:55;;;;;;;;;;;;;;;1.03;86.58;100189.19;5025819;28;20022;-68
2023/02/23 04:18:33;;;;;;;0.60;0.60;;;;;;;1.39;89.02;100112.50;5029112;28;20049;-69
2023/02/23 04:21:00;;;;;;;0.80;0.80;;;;;;;1.39;88.99;100098.00;5028959;28;20033;-70
2023/02/23 04:23:26;;;;;;;0.57;0.57;;;;;;;1.41;89.08;100105.72;5028776;28;20044;-70
2023/02/23 04:25:53;;;;;;;1.08;1.05;;;;;;;1.38;89.09;100103.94;5028640;28;20022;-69
2023/02/23 04:28:20;;;;;;;0.50;0.50;;;;;;;1.59;88.84;100106.19;5028720;28;20022;-69
2023/02/23 04:30:46;;;;;;;0.50;0.50;;;;;;;1.50;88.89;100107.63;5028742;28;20030;-66
2023/02/23 04:33:12;;;;;;;0.50;0.50;;;;;;;1.45;89.48;100095.59;5028772;28;20022;-70
2023/02/23 04:35:38;;;;;;;0.60;0.60;;;;;;;1.43;89.97;100091.28;5043928;28;20026;-69
2023/02/23 04:38:04;;;;;;;0.50;0.50;;;;;;;1.46;89.53;100093.91;5028556;28;20026;-67
2023/02/23 04:40:29;;;;;;;0.60;0.60;;;;;;;1.37;90.57;100092.00;5028436;28;20022;-68
2023/02/23 04:42:55;;;;;;;0.50;0.50;;;;;;;1.30;90.82;100097.78;5043439;28;20022;-68
2023/02/23 04:45:22;;;;;;;0.50;0.50;;;;;;;1.38;90.94;100096.28;5028345;28;20022;-67
2023/02/23 04:47:48;;;;;;;0.55;0.55;;;;;;;1.48;90.74;100087.13;5043654;28;20381;-67
2023/02/23 04:50:13;;;;;;;0.50;0.50;;;;;;;1.64;90.10;100080.69;5028309;28;20493;-69
2023/02/23 04:52:40;;;;;;;0.50;0.50;;;;;;;1.71;89.03;100077.44;5027920;28;20056;-67
2023/02/23 04:55:07;;;;;;;0.50;0.50;;;;;;;1.65;89.10;100090.09;5028294;28;20085;-66
2023/02/23 04:57:33;;;;;;;0.60;0.60;;;;;;;1.56;90.07;100077.97;5028058;28;20049;-66
2023/02/23 04:59:58;;;;;;;1.33;1.33;;;;;;;1.55;90.24;100085.59;5028264;28;20032;-66
2023/02/23 05:02:24;;;;;;;0.55;0.55;;;;;;;1.50;90.54;100082.06;5027981;28;20445;-65
2023/02/23 05:04:50;;;;;;;0.52;0.52;;;;;;;1.68;90.19;100085.03;5028042;28;20049;-66
2023/02/23 05:07:16;;;;;;;1.02;1.02;;;;;;;1.53;90.84;100082.13;5027958;28;20049;-65
2023/02/23 05:09:41;;;;;;;0.50;0.50;;;;;;;1.59;91.02;100084.81;5028066;28;20097;-65
2023/02/23 05:12:07;;;;;;;0.50;0.50;;;;;;;1.60;91.05;100078.88;5027644;28;20106;-67
2023/02/23 05:14:33;;;;;;;0.50;0.50;;;;;;;1.62;91.37;100077.22;5027743;28;20057;-67
2023/02/23 05:16:58;;;;;;;0.60;0.60;;;;;;;1.71;90.86;100074.88;5027641;28;20061;-66
2023/02/23 05:19:24;;;;;;;0.45;0.45;;;;;;;1.75;90.91;100069.81;5027935;28;20076;-67
2023/02/23 05:21:49;;;;;;;0.65;0.65;;;;;;;1.66;91.19;100067.94;5027046;28;20446;-67
2023/02/23 05:24:16;;;;;;;0.50;0.50;;;;;;;1.75;91.22;100065.56;5027611;28;20364;-66
2023/02/23 05:26:42;;;;;;;0.57;0.57;;;;;;;1.74;91.13;100066.41;5026156;28;20121;-68
2023/02/23 05:29:08;;;;;;;0.50;0.50;;;;;;;1.83;91.07;100075.97;5027684;28;20105;-70
2023/02/23 05:31:33;;;;;;;0.60;0.60;;;;;;;1.77;91.28;100070.72;5027081;28;20026;-66
2023/02/23 05:33:59;;;;;;;0.50;0.50;;;;;;;1.78;91.19;100052.84;5027706;28;20049;-66
2023/02/23 05:36:24;;;;;;;0.50;0.50;;;;;;;1.82;91.37;100064.84;5026045;28;20025;-65
2023/02/23 05:38:50;;;;;;;0.50;0.50;;;;;;;1.82;91.40;100069.97;5026803;28;20029;-66
2023/02/23 05:41:18;;;;;;;0.70;0.70;;;;;;;1.86;91.38;100068.34;5027379;28;20098;-66
2023/02/23 05:43:44;;;;;;;0.50;0.50;;;;;;;1.82;91.45;100064.84;5042703;28;20026;-67
2023/02/23 05:46:13;;;;;;;0.60;0.60;;;;;;;1.86;91.71;100068.34;5027502;28;20462;-66
2023/02/23 05:48:38;;;;;;;0.50;0.50;;;;;;;1.90;91.69;100067.59;5027226;28;20018;-67
2023/02/23 05:51:05;;;;;;;0.57;0.57;;;;;;;2.01;91.27;100069.53;5027292;28;20022;-67
2023/02/23 05:53:34;;;;;;;0.50;0.50;;;;;;;1.97;91.40;100064.34;5027243;28;20053;-67
2023/02/23 05:56:04;;;;;;;0.50;0.50;;;;;;;1.98;91.41;100065.22;5027095;28;20156;-65
2023/02/23 05:58:30;;;;;;;0.50;0.50;;;;;;;2.03;91.33;100066.16;5027042;28;20037;-65
2023/02/23 06:00:56;;;;;;;0.50;0.50;;;;;;;1.97;91.67;100061.78;5042413;28;20059;-65
2023/02/23 06:03:22;;;;;;;0.50;0.50;;;;;;;1.98;91.76;100058.38;5042249;28;20045;-66
2023/02/23 06:05:55;;;;;;;0.50;0.50;;;;;;;2.04;91.75;100051.66;5027048;28;20053;-67
2023/02/23 06:08:22;;;;;;;0.45;0.45;;;;;;;2.05;91.74;100053.38;5026798;28;20037;-66
2023/02/23 06:10:47;;;;;;;2.28;1.90;;;;;;;2.06;91.82;100050.00;5026887;28;20021;-66
2023/02/23 06:13:16;;;;;;;0.57;0.57;;;;;;;2.04;91.81;100044.84;5027045;28;20040;-67
2023/02/23 06:15:43;;;;;;;0.50;0.50;;;;;;;2.11;91.81;100043.25;5026968;28;20034;-67
2023/02/23 06:18:08;;;;;;;0.50;0.50;;;;;;;2.12;91.61;100037.31;5026757;28;20064;-67
2023/02/23 06:20:35;;;;;;;0.50;0.50;;;;;;;2.12;91.61;100034.75;5026787;28;20052;-67
2023/02/23 06:23:00;;;;;;;0.50;0.50;;;;;;;2.09;91.97;100034.72;5026562;28;20026;-68
2023/02/23 06:25:26;;;;;;;0.50;0.50;;;;;;;2.15;91.88;100028.81;5026580;28;20026;-68
2023/02/23 06:27:52;;;;;;;0.50;0.50;;;;;;;2.14;91.97;100027.94;5025314;28;20029;-67
2023/02/23 06:30:17;;;;;;;0.65;0.65;;;;;;;2.17;91.80;100024.63;5026739;28;20026;-68
2023/02/23 06:32:43;;;;;;;2.20;2.05;;;;;;;2.19;92.11;100023.78;5025812;28;20048;-67
2023/02/23 06:35:09;;;;;;;0.50;0.50;;;;;;;2.23;91.87;100029.84;5026834;28;20030;-67
2023/02/23 06:37:35;;;;;;;2.92;2.75;;;;;;;2.20;92.19;100029.78;5026712;28;20025;-66
2023/02/23 06:40:02;;;;;;;0.50;0.50;;;;;;;2.22;92.22;100034.09;5028447;28;20107;-66
2023/02/23 06:42:27;;;;;;;0.93;0.93;;;;;;;2.27;92.17;100036.75;5029255;28;20033;-68
2023/02/23 06:44:53;;;;;;;0.50;0.50;;;;;;;2.31;91.93;100027.44;5026601;28;20029;-69
2023/02/23 06:47:18;;;;;;;0.85;0.85;;;;;;;2.29;92.17;100035.09;5026280;28;20065;-68
2023/02/23 06:49:44;;;;;;;1.38;1.27;;;;;;;2.28;92.39;100028.25;5041599;28;20029;-69
2023/02/23 06:52:10;;;;;;;0.45;0.45;;;;;;;2.35;92.23;100035.22;5041102;28;20042;-68
2023/02/23 06:54:38;;;;;;;0.60;0.60;;;;;;;2.37;92.22;100026.69;5025035;28;20037;-67
2023/02/23 06:57:04;;;;;;;0.75;0.75;;;;;;;2.36;92.17;100041.22;5026073;28;20026;-67
2023/02/23 06:59:29;;;;;;;0.50;0.50;;;;;;;2.36;92.63;100030.97;5024902;28;20045;-68
2023/02/23 07:01:55;;;;;;;0.50;0.50;;;;;;;2.44;92.31;100031.97;5024885;28;20021;-67
2023/02/23 07:04:21;;;;;;;0.57;0.57;;;;;;;2.40;92.53;100019.91;5025998;28;20029;-67
2023/02/23 07:06:47;;;;;;;0.50;0.50;;;;;;;2.47;92.32;100032.03;5025968;28;20026;-67
2023/02/23 07:09:14;;;;;;;0.60;0.60;;;;;;;2.45;92.36;100030.25;5026308;28;20029;-68
2023/02/23 07:11:40;;;;;;;0.60;0.60;;;;;;;2.52;92.37;100026.13;5025894;28;20184;-68
2023/02/23 07:14:05;;;;;;;0.50;0.50;;;;;;;2.51;92.67;100021.84;5025884;28;20028;-69
2023/02/23 07:16:31;;;;;;;1.05;1.05;;;;;;;2.54;92.69;100029.59;5025790;28;20085;-70
2023/02/23 07:18:56;;;;;;;0.50;0.50;;;;;;;2.58;92.55;100026.22;5025875;28;20105;-70
2023/02/23 07:21:22;;;;;;;0.50;0.50;;;;;;;2.61;92.56;100028.84;5024337;28;20422;-69
2023/02/23 07:23:48;;;;;;;0.50;0.50;;;;;;;2.63;92.45;100023.75;5008166;28;20429;-68
2023/02/23 07:26:15;;;;;;;0.55;0.55;;;;;;;2.60;92.61;100015.16;5025798;28;20030;-68
2023/02/23 07:28:42;;;;;;;0.50;0.50;;;;;;;2.69;92.51;100028.97;5025761;28;20032;-68
2023/02/23 07:31:07;;;;;;;0.50;0.50;;;;;;;2.68;92.60;100023.00;5025813;28;20026;-68
2023/02/23 07:33:33;;;;;;;0.60;0.60;;;;;;;2.71;92.67;100024.75;5025630;28;20033;-68
2023/02/23 07:35:58;;;;;;;2.45;2.35;;;;;;;2.64;92.97;100028.91;5025710;28;20026;-68
2023/02/23 07:38:23;;;;;;;0.52;0.52;;;;;;;2.72;93.01;100034.16;5025478;28;20026;-70
2023/02/23 07:40:50;;;;;;;0.50;0.50;;;;;;;2.78;93.10;100033.41;5025376;28;20088;-69
2023/02/23 07:43:15;;;;;;;0.50;0.50;;;;;;;2.77;92.99;100032.56;5040230;28;20398;-68
2023/02/23 07:45:41;;;;;;;0.60;0.60;;;;;;;2.75;93.12;100030.81;5025428;28;20030;-68
2023/02/23 07:48:07;;;;;;;5.07;4.57;;;;;;;2.84;93.29;100033.53;5025453;28;20026;-69
2023/02/23 07:50:33;;;;;;;0.50;0.50;;;;;;;2.89;93.34;100034.44;5024216;28;20029;-69
2023/02/23 07:52:58;;;;;;;0.50;0.50;;;;;;;2.88;93.30;100026.72;5025292;28;20041;-70
2023/02/23 07:55:24;;;;;;;2.05;1.95;;;;;;;2.92;93.21;100025.97;5025431;28;20033;-69
2023/02/23 07:57:49;;;;;;;0.50;0.50;;;;;;;2.94;93.19;100024.28;5025175;28;20060;-69
2023/02/23 08:00:15;;;;;;;0.50;0.50;;;;;;;2.88;93.38;100014.78;5025430;28;20026;-71
2023/02/23 08:02:41;;;;;;;0.60;0.60;;;;;;;2.94;93.54;100025.13;5040567;28;20030;-69
2023/02/23 08:05:06;;;;;;;0.50;0.50;;;;;;;3.02;93.09;100020.13;5025337;28;20018;-70
2023/02/23 08:07:32;;;;;;;0.50;0.50;;;;;;;3.03;93.19;100024.44;5025276;28;20081;-70
2023/02/23 08:09:58;;;;;;;0.50;0.50;;;;;;;3.03;93.33;100019.31;5025272;28;20025;-70
2023/02/23 08:12:24;;;;;;;0.50;0.50;;;;;;;3.07;93.37;100017.63;5025370;28;20033;-71
2023/02/23 08:14:49;;;;;;;0.50;0.50;;;;;;;3.06;93.30;100021.94;5025317;28;20104;-69
2023/02/23 08:17:15;;;;;;;0.50;0.50;;;;;;;3.07;93.28;100015.94;5025196;28;20026;-70
2023/02/23 08:19:40;;;;;;;0.50;0.50;;;;;;;3.07;93.50;100008.25;5025184;28;20034;-69
2023/02/23 08:22:06;;;;;;;0.50;0.50;;;;;;;3.06;93.67;100011.66;5025175;28;20048;-69
2023/02/23 08:24:31;;;;;;;0.60;0.60;;;;;;;3.10;93.48;100002.28;5025249;28;20026;-70
2023/02/23 08:26:57;;;;;;;1.63;1.52;;;;;;;3.07;93.71;100005.69;5039972;28;20371;-70
2023/02/23 08:29:23;;;;;;;1.90;1.80;;;;;;;3.15;93.82;100012.63;5025372;28;20387;-70
2023/02/23 08:31:50;;;;;;;0.50;0.50;;;;;;;3.12;93.98;100007.44;5025155;28;20026;-69
2023/02/23 08:34:16;;;;;;;0.50;0.50;;;;;;;3.18;93.98;100007.56;5025370;28;20041;-69
2023/02/23 08:36:44;;;;;;;0.50;0.50;;;;;;;3.21;93.73;100005.91;5025702;28;20045;-69
2023/02/23 08:39:11;;;;;;;1.33;1.33;;;;;;;3.15;93.90;99995.53;5030747;28;20033;-70
2023/02/23 08:41:37;;;;;;;0.88;0.88;;;;;;;3.17;94.21;100011.84;5043941;28;20632;-69
2023/02/23 08:44:02;;;;;;;0.50;0.50;;;;;;;3.14;94.36;99990.38;5026925;28;20025;-70
2023/02/23 08:46:28;;;;;;;3.15;2.95;;;;;;;3.20;94.63;99996.50;5025754;28;20482;-69
2023/02/23 08:48:55;;;;;;;0.55;0.55;;;;;;;3.19;94.61;99994.78;5026706;28;20033;-70
2023/02/23 08:51:20;;;;;;;0.50;0.50;;;;;;;3.17;94.75;99991.31;5024694;28;20099;-69
2023/02/23 08:53:46;;;;;;;0.50;0.50;;;;;;;3.24;95.09;99994.84;5025403;28;20049;-71
2023/02/23 08:56:12;;;;;;;0.50;0.50;;;;;;;3.24;95.26;99992.28;5026716;28;20498;-70
2023/02/23 08:58:38;;;;;;;0.50;0.50;;;;;;;3.32;95.15;99992.38;5028712;28;20521;-70
2023/02/23 09:01:04;;;;;;;0.45;0.45;;;;;;;3.33;95.23;99992.41;5028515;28;20022;-70
2023/02/23 09:03:31;;;;;;;0.50;0.50;;;;;;;3.35;95.20;99993.25;5028312;28;20018;-70
2023/02/23 09:06:03;;;;;;;0.50;0.50;;;;;;;3.30;95.32;99988.91;5028478;28;20048;-69
2023/02/23 09:08:29;;;;;;;0.50;0.50;;;;;;;3.38;95.32;99984.78;5028205;28;20060;-69
2023/02/23 09:10:54;;;;;;;0.50;0.50;;;;;;;3.38;95.42;99982.19;5028150;28;20030;-70
2023/02/23 09:13:20;;;;;;;0.50;0.50;;;;;;;3.36;95.38;99986.44;5028445;28;20025;-70
2023/02/23 09:15:46;;;;;;;0.70;0.70;;;;;;;3.43;95.27;99987.41;5028224;28;20399;-69
2023/02/23 09:18:13;;;;;;;0.50;0.50;;;;;;;3.41;95.72;99981.38;5028029;28;20092;-70
2023/02/23 09:20:42;;;;;;;0.60;0.60;;;;;;;3.45;95.64;99975.47;5028334;28;20097;-70
2023/02/23 09:23:08;;;;;;;0.50;0.50;;;;;;;3.49;95.88;99977.22;5043263;28;20041;-70
2023/02/23 09:25:38;;;;;;;0.50;0.50;;;;;;;3.52;95.82;99960.97;5028004;28;20022;-69
2023/02/23 09:28:04;;;;;;;4.60;3.13;;;;;;;3.52;96.15;99963.56;5027941;28;20022;-69
2023/02/23 09:30:29;;;;;;;0.52;0.52;;;;;;;3.59;95.92;99967.94;5028043;28;20028;-70
2023/02/23 09:32:55;;;;;;;0.80;0.80;;;;;;;3.68;96.25;99973.19;5010648;28;20024;-70
2023/02/23 09:35:22;;;;;;;0.50;0.50;;;;;;;3.68;95.89;99965.50;5028110;28;20073;-70
2023/02/23 09:37:50;;;;;;;0.50;0.50;;;;;;;3.68;96.07;99967.19;5027888;28;20049;-69
2023/02/23 09:40:19;;;;;;;0.80;0.80;;;;;;;3.68;96.33;99969.75;5028320;28;20144;-70
2023/02/23 09:42:59;;;;;;;0.47;0.47;;;;;;;3.74;95.92;99964.69;5027762;28;20022;-71
2023/02/23 09:45:33;;;;;;;0.50;0.50;;;;;;;3.75;95.70;99973.28;5043129;28;20044;-69
2023/02/23 09:48:09;;;;;;;0.60;0.60;;;;;;;3.72;95.86;99972.38;5027564;28;20041;-70
2023/02/23 09:50:37;;;;;;;0.50;0.50;;;;;;;3.68;96.09;99965.50;5027527;28;20061;-69
2023/02/23 09:53:10;;;;;;;1.15;1.15;;;;;;;3.70;96.00;99961.25;5027467;28;20046;-71
2023/02/23 09:55:40;;;;;;;0.40;0.40;;;;;;;3.71;96.16;99962.09;5026483;28;20061;-70
2023/02/23 09:58:27;;;;;;;0.50;0.50;;;;;;;3.74;96.11;99964.69;5027187;28;20042;-70
2023/02/23 10:01:20;;;;;;;0.50;0.50;;;;;;;3.77;96.31;99969.03;5027483;28;20025;-69
2023/02/23 10:03:51;;;;;;;0.50;0.50;;;;;;;3.79;96.22;99964.75;5027555;28;20049;-70
2023/02/23 10:06:18;;;;;;;0.50;0.50;;;;;;;3.77;95.91;99958.75;5027062;28;20367;-70
2023/02/23 10:08:47;;;;;;;0.60;0.60;;;;;;;3.81;96.35;99965.63;5026942;28;20022;-69
2023/02/23 10:11:28;;;;;;;0.50;0.50;;;;;;;3.79;96.51;99955.34;5026973;28;20018;-70
2023/02/23 10:14:05;;;;;;;0.47;0.47;;;;;;;3.82;96.58;99957.06;5042441;28;20026;-70
2023/02/23 10:16:55;;;;;;;1.30;1.30;;;;;;;3.85;96.56;99957.13;5027146;28;20028;-70
2023/02/23 10:19:34;;;;;;;0.70;0.70;;;;;;;3.88;96.55;99948.59;5026945;28;20061;-70
2023/02/23 10:22:06;;;;;;;0.50;0.50;;;;;;;3.90;96.47;99939.22;5042061;28;20034;-70
2023/02/23 10:24:37;;;;;;;0.60;0.60;;;;;;;3.90;96.54;99931.50;5026941;28;20038;-69
2023/02/23 10:27:19;;;;;;;1.20;1.10;;;;;;;3.90;96.68;99919.50;5026862;28;20057;-69
2023/02/23 10:29:54;;;;;;;0.50;0.50;;;;;;;3.91;96.60;99922.97;5025797;28;20036;-69
2023/02/23 10:32:22;;;;;;;0.50;0.50;;;;;;;3.96;96.94;99929.00;5026734;28;20502;-68
2023/02/23 10:34:52;;;;;;;0.50;0.50;;;;;;;3.95;97.03;99919.56;5026815;28;20075;-70
2023/02/23 10:37:19;;;;;;;0.50;0.50;;;;;;;4.02;97.26;99923.06;5026634;28;20034;-68
2023/02/23 10:39:45;;;;;;;0.82;0.82;;;;;;;4.06;97.27;99929.94;5026518;28;20021;-70
2023/02/23 10:42:20;;;;;;;1.35;1.25;;;;;;;4.06;97.44;99917.09;5041476;28;20041;-69
2023/02/23 10:44:46;;;;;;;0.68;0.68;;;;;;;4.11;97.34;99923.16;5026559;28;20018;-69
2023/02/23 10:47:19;;;;;;;1.13;1.13;;;;;;;4.17;97.43;99915.50;5026399;28;20025;-68
2023/02/23 10:49:50;;;;;;;3.05;1.65;;;;;;;4.21;97.35;99912.16;5041789;28;20021;-69
2023/02/23 10:52:22;;;;;;;0.60;0.60;;;;;;;4.31;97.50;99910.50;5026254;28;20045;-69
2023/02/23 10:54:50;;;;;;;0.60;0.60;;;;;;;4.29;97.55;99914.78;5026396;28;20018;-69
2023/02/23 10:57:22;;;;;;;0.40;0.40;;;;;;;4.27;97.57;99915.59;5025986;28;20037;-68
2023/02/23 11:00:15;;;;;;;0.43;0.43;;;;;;;4.26;97.26;99924.16;5041613;28;20033;-69
2023/02/23 11:02:44;;;;;;;0.50;0.50;;;;;;;4.22;97.24;99920.69;5026027;28;20021;-69
2023/02/23 11:05:27;;;;;;;0.50;0.50;;;;;;;4.19;97.28;99913.81;5026125;28;20061;-68
2023/02/23 11:08:28;;;;;;;0.95;0.95;;;;;;;4.20;97.44;99915.53;5026119;28;20057;-69
2023/02/23 11:10:55;;;;;;;;;;;;;;;4.24;97.57;99923.28;5026432;28;20136;-68
2023/02/23 11:13:23;;;;;;;0.50;0.50;;;;;;;4.16;97.58;99906.09;5026339;28;19910;-69
2023/02/23 11:15:57;;;;;;;0.50;0.50;;;;;;;4.17;97.48;99915.50;5026069;28;20032;-68
2023/02/23 11:18:25;;;;;;;0.45;0.45;;;;;;;4.20;97.43;99920.69;5025423;28;20026;-68
2023/02/23 11:20:51;;;;;;;0.50;0.50;;;;;;;4.25;97.47;99914.75;5025904;28;20117;-68
2023/02/23 11:23:22;;;;;;;3.33;3.13;;;;;;;4.25;97.42;99909.59;5025884;28;20040;-69
2023/02/23 11:25:54;;;;;;;0.60;0.60;;;;;;;4.29;97.26;99908.78;5025876;28;20094;-68
2023/02/23 11:28:32;;;;;;;0.47;0.47;;;;;;;4.31;97.81;99907.94;5025939;28;20025;-69
2023/02/23 11:31:17;;;;;;;0.40;0.40;;;;;;;4.34;97.81;99904.53;5040992;28;20048;-68
2023/02/23 11:33:43;;;;;;;0.50;0.50;;;;;;;4.39;97.78;99896.88;5040858;28;20045;-69
2023/02/23 11:36:26;;;;;;;1.13;1.13;;;;;;;4.42;97.76;99902.03;5025888;28;20019;-68
2023/02/23 11:39:20;;;;;;;0.50;0.50;;;;;;;4.44;97.79;99902.94;5040724;28;20025;-68
2023/02/23 11:42:02;;;;;;;0.50;0.50;;;;;;;4.42;97.65;99895.19;5025501;28;20434;-69
2023/02/23 11:44:28;;;;;;;0.60;0.60;;;;;;;4.43;97.72;99899.47;5025785;28;20467;-68
2023/02/23 11:46:53;;;;;;;0.40;0.40;;;;;;;4.47;97.83;99905.53;5025559;28;20033;-68
2023/02/23 11:49:29;;;;;;;0.50;0.50;;;;;;;4.50;97.79;99902.09;5025412;28;20029;-67
2023/02/23 11:51:55;;;;;;;0.50;0.50;;;;;;;4.49;97.89;99890.94;5025298;28;20048;-68
2023/02/23 11:54:23;;;;;;;0.40;0.40;;;;;;;4.54;97.92;99898.69;5025446;28;20033;-68
2023/02/23 11:56:52;;;;;;;1.20;1.13;;;;;;;4.54;97.96;99893.56;5024200;28;20036;-68
2023/02/23 11:59:29;;;;;;;0.50;0.50;;;;;;;4.53;98.15;99887.56;5025385;28;20054;-67
2023/02/23 12:02:16;;;;;;;0.50;0.50;;;;;;;4.59;98.01;99894.47;5024153;28;20041;-68
2023/02/23 12:04:46;;;;;;;0.50;0.50;;;;;;;4.61;98.18;99882.50;5025590;28;20030;-67
2023/02/23 12:07:42;;;;;;;0.50;0.50;;;;;;;4.65;98.09;99881.66;5024806;28;20141;-67
2023/02/23 12:10:46;;;;;;;0.40;0.40;;;;;;;4.69;98.41;99883.41;5039954;28;20033;-67
2023/02/23 12:13:31;;;;;;;0.40;0.40;;;;;;;4.69;98.31;99882.53;5003615;28;20042;-67
2023/02/23 12:16:01;;;;;;;0.50;0.50;;;;;;;4.69;98.15;99887.69;5024610;28;20025;-67
2023/02/23 12:18:38;;;;;;;0.50;0.50;;;;;;;4.67;98.33;99877.38;5024551;28;20034;-66
2023/02/23 12:21:18;;;;;;;0.50;0.50;;;;;;;4.74;98.32;99885.16;5024624;28;20057;-68
2023/02/23 12:23:45;;;;;;;0.50;0.50;;;;;;;4.74;98.29;99880.00;5024723;28;20022;-68
2023/02/23 12:26:17;;;;;;;0.47;0.47;;;;;;;4.72;98.44;99872.28;5024653;28;20026;-67
2023/02/23 12:28:56;;;;;;;;;;;;;;;4.78;98.42;99871.44;5024051;28;20084;-69
2023/02/23 12:31:44;;;;;;;0.40;0.40;;;;;;;4.76;98.45;99874.00;5026519;28;19975;-69
2023/02/23 12:34:29;;;;;;;0.45;0.45;;;;;;;4.79;98.62;99868.03;5029072;28;20080;-67
2023/02/23 12:37:28;;;;;;;0.50;0.50;;;;;;;4.85;98.87;99868.09;5028734;28;20037;-68
2023/02/23 12:40:27;;;;;;;0.50;0.50;;;;;;;4.90;98.61;99866.41;4987380;28;20515;-69
2023/02/23 12:43:24;;;;;;;0.50;0.50;;;;;;;4.94;98.90;99874.97;4987187;28;20046;-69
2023/02/23 12:46:05;;;;;;;0.50;0.50;;;;;;;4.93;98.63;99870.69;4987951;28;20027;-69
2023/02/23 12:48:40;;;;;;;0.60;0.60;;;;;;;4.90;98.55;99860.38;4987352;28;20038;-69
2023/02/23 12:51:21;;;;;;;0.50;0.50;;;;;;;4.88;98.68;99868.09;4987296;28;20039;-70
2023/02/23 12:53:46;;;;;;;0.43;0.43;;;;;;;4.91;98.45;99868.13;4987313;28;20119;-70
2023/02/23 12:56:26;;;;;;;0.50;0.50;;;;;;;4.93;98.54;99861.28;4986901;28;20042;-68
2023/02/23 12:59:12;;;;;;;0.50;0.50;;;;;;;4.95;98.93;99867.28;4987011;28;20066;-68
2023/02/23 13:01:49;;;;;;;0.50;0.50;;;;;;;4.94;98.75;99852.69;4987048;28;20035;-69
2023/02/23 13:04:21;;;;;;;0.40;0.40;;;;;;;4.98;98.60;99857.88;4986738;28;20062;-69
2023/02/23 13:07:05;;;;;;;0.50;0.50;;;;;;;4.94;98.74;99846.69;4986992;28;20465;-69
2023/02/23 13:09:33;;;;;;;0.40;0.40;;;;;;;4.93;98.76;99856.13;4986748;28;20043;-71